Aérodrome :
LOGIN :

S'inscrire | Disclaimer

   EN    FR    IT 

 










Légende :    VFR   VFR Marginal   IFR   IFR Intensif   IFR Très Intensif
Visi : 
Plafond : 
>= 8 km
>= 3000ft
5 à 8 km
1000 à 3000 ft
1500m à 5 km
500 à 1000 ft
800 à 1500m
200 à 500 ft
< 800m
< 200 ft
Symboles :   Orages  Brouillard  Fortes neiges  Fortes précipitations  Vent > 20 kt
SIGMETs :   Divers  Orages  Givrage  Turbulence  Onde Orograph.  Cendres Volcan.







- Altitude de l'aérodrome : 299 ft
- Code IATA : EDM
- Voir les cartes d'approche


LFRI - La Roche Sur Yon - Les Ajoncs

DERNIER METAR :
  • 222100Z AUTO 27003KT 9999 FEW032 OVC044 12/08 Q1026

METARs EXPIRÉS :
  • 222030Z AUTO 26004KT 9999 BKN042 OVC210 11/08 Q1026
  • 222000Z AUTO 27004KT 9999 FEW043 OVC220 12/08 Q1026
  • 221930Z AUTO 26007KT 230V290 9999 FEW042 BKN240 12/08 Q1026
  • 221900Z AUTO 27006KT 9999 FEW030 BKN040 12/08 Q1026
  • 221830Z AUTO 28006KT 9999 SCT044 12/08 Q1026

TAF TAF LFRI
Valide du 22 à 18h jusqu'au 23 à 18h UTC


221700Z 2218/2318 28007KT 9999 SCT030
BECMG 2300/2303 22004KT
BECMG 2309/2312 BKN020
Pas de NOTAMs connus pour ce terrain.



MET'MAP, la Météo Aéronautique d'un coup d'oeil ! - Copyright ORBIFLY Décembre 2007 - Disclaimer

ORBIFLY MET'MAP TEAM :

Programmation & Développement : Alexandra Zaïnal
Conception & Développement : Baudouin d'Aumeries
Co-Programmation & Développement : Marc-Olivier Méhu
Soutien technique & logistique : Manuel Goepfert

Contact : metmap@orbifly.com




SOURCES & CREDITS :

   NOAA